Latest Weather Observations for Bathurst Airport

IDN60801

Issued at 5:42 am EDT Friday 16 November 2018 (issued every 10 minutes, with the page automatically refreshed every 10 minutes)

About weather observations | Map of weather stations | Latest weather observations for NSW | Other Formats
Station Details ID: 063291 Name: BATHURST AIRPORT AWS Lat: -33.41 Lon: 149.65 Height: 744.5 m
Data from the previous 72 hours. | See also: Recent months at Bathurst Airport
Date/Time
EDT
Temp
°C
App
Temp
°C
Dew
Point
°C
Rel
Hum
%
Delta-T
°C
Wind Press
QNH
hPa
Press
MSL
hPa
Rain since
9am
mm
Dir  Spd
km/h
Gust
km/h
Spd
kts
Gust
kts
16/05:30am 11.0 8.1 9.8 92 0.6 ENE 15 20 8 11 1020.6 1018.2 0.0
16/05:00am 11.1 9.3 9.5 90 0.8 E 9 15 5 8 1020.5 1018.1 0.0
16/04:30am 11.6 8.3 9.7 88 1.0 ENE 17 28 9 15 1020.6 1018.2 0.0
16/04:00am 11.4 8.5 9.7 89 0.9 ENE 15 24 8 13 1020.7 1018.3 0.0
16/03:30am 11.4 8.4 9.3 87 1.1 ENE 15 20 8 11 1020.8 1018.4 0.0
16/03:00am 11.7 11.3 9.6 87 1.1 ENE 2 9 1 5 1021.1 1018.7 0.0
16/02:30am 12.2 10.5 9.8 85 1.3 ESE 9 13 5 7 1021.4 1019.1 0.0
16/02:00am 12.7 11.9 9.5 81 1.7 ESE 4 13 2 7 1021.8 1019.4 0.0
16/01:30am 12.9 11.7 9.4 79 1.9 ESE 6 9 3 5 1022.1 1019.7 0.0
16/01:00am 13.3 10.4 9.5 78 2.0 ENE 15 20 8 11 1022.3 1019.9 0.0
16/12:30am 13.2 9.3 9.5 78 2.0 ENE 20 32 11 17 1022.5 1020.2 0.0
16/12:00am 13.7 9.9 9.9 78 2.0 ENE 20 30 11 16 1022.6 1020.3 0.0
 
Date/Time
EDT
Temp
°C
App
Temp
°C
Dew
Point
°C
Rel
Hum
%
Delta-T
°C
Wind Press
QNH
hPa
Press
MSL
hPa
Rain since
9am
mm
Dir  Spd
km/h
Gust
km/h
Spd
kts
Gust
kts
15/11:30pm 13.5 9.9 9.9 79 1.9 ENE 19 26 10 14 1022.6 1020.3 0.0
15/11:00pm 13.3 9.9 10.5 83 1.5 ENE 19 26 10 14 1022.5 1020.2 0.0
15/10:30pm 13.7 10.1 10.5 81 1.7 ENE 20 28 11 15 1022.4 1020.1 0.0
15/10:00pm 13.9 11.7 10.9 82 1.6 ENE 13 20 7 11 1022.3 1019.9 0.0
15/09:30pm 14.9 13.7 11.5 80 1.9 E 9 26 5 14 1021.8 1019.4 0.0
15/09:00pm 15.3 13.3 11.5 78 2.1 ESE 13 20 7 11 1021.4 1019.1 0.0
15/08:30pm 15.5 13.1 11.5 77 2.2 E 15 22 8 12 1021.0 1018.6 0.0
15/08:00pm 15.8 13.2 12.0 78 2.1 E 17 28 9 15 1020.8 1018.4 0.0
15/07:30pm 17.3 15.2 12.4 73 2.8 E 15 20 8 11 1020.2 1017.9 0.0
15/07:00pm 18.4 15.4 12.6 69 3.3 E 20 32 11 17 1019.6 1017.2 0.0
15/06:30pm 20.7 18.3 12.7 60 4.7 ESE 17 28 9 15 1018.4 1016.0 0.0
15/06:00pm 21.9 20.1 14.5 63 4.5 SSE 17 22 9 12 1018.0 1015.6 0.0
15/05:30pm 21.9 20.9 13.3 58 5.1 S 11 24 6 13 1017.9 1015.5 0.0
15/05:00pm 23.7 20.3 10.4 43 7.6 NNW 19 24 10 13 1017.8 1015.4 0.0
15/04:30pm 24.7 20.4 10.9 42 8.0 N 24 28 13 15 1017.8 1015.4 0.0
15/04:00pm 24.3 20.3 10.6 42 7.9 N 22 33 12 18 1017.8 1015.4 0.0
15/03:30pm 24.3 20.9 11.3 44 7.6 N 20 28 11 15 1018.1 1015.7 0.0
15/03:00pm 23.1 20.4 11.8 49 6.6 NW 17 19 9 10 1018.7 1016.4 0.0
15/02:30pm 21.9 16.4 10.7 49 6.4 N 30 37 16 20 1018.6 1016.2 0.0
15/02:21pm 22.1 16.8 9.9 46 6.9 N 28 43 15 23 1018.7 1016.4 0.0
15/02:00pm 25.4 23.3 9.7 37 8.9 NE 11 17 6 9 1018.3 1015.9 0.0
15/01:30pm 24.5 22.2 11.8 45 7.5 NNE 15 20 8 11 1019.2 1016.8 0.0
15/01:00pm 23.4 20.6 11.5 47 6.9 WNW 17 22 9 12 1019.4 1017.0 0.0
15/12:30pm 24.0 20.9 8.8 38 8.5 W 15 22 8 12 1019.4 1017.0 0.0
15/12:00pm 25.1 23.2 9.0 36 9.0 NW 9 20 5 11 1019.7 1017.3 0.0
15/11:30am 24.6 23.5 11.9 45 7.5 N 9 19 5 10 1020.4 1018.0 0.0
15/11:00am 23.8 22.7 11.8 47 7.0 SW 9 15 5 8 1020.6 1018.2 0.0
15/10:30am 22.4 20.7 12.6 54 5.8 WNW 13 20 7 11 1020.7 1018.3 0.0
15/10:00am 19.9 18.7 12.9 64 4.1 W 11 19 6 10 1021.0 1018.6 0.0
15/09:30am 20.5 20.5 13.7 65 4.0 NW 6 11 3 6 1020.9 1018.5 0.0
15/09:00am 18.6 19.3 13.5 72 3.0 NW 2 7 1 4 1020.9 1018.5 0.4
15/08:30am 15.9 15.4 12.8 82 1.8 W 7 9 4 5 1020.8 1018.4 0.4
15/08:00am 15.0 16.2 13.9 93 0.6 CALM 0 6 0 3 1020.6 1018.2 0.4
15/07:30am 13.6 14.7 13.4 99 0.1 CALM 0 0 0 0 1020.2 1017.9 0.4
15/07:00am 12.0 11.5 12.0 100 0.0 S 6 7 3 4 1019.9 1017.6 0.4
15/06:30am 10.8 9.9 10.8 100 0.0 S 6 7 3 4 1019.6 1017.2 0.4
15/06:13am 9.7 9.3 9.7 100 0.0 SSE 2 7 1 4 1019.4 1017.0 0.4
15/06:00am 9.2 9.0 9.2 100 0.0 CALM 0 0 0 0 1019.1 1016.7 0.4
15/05:46am 9.4 9.3 9.4 100 0.0 CALM 0 0 0 0 1018.9 1016.5 0.4
15/05:30am 10.6 9.1 10.6 100 0.0 SSE 9 11 5 6 1018.6 1016.2 0.4
15/05:00am 10.6 9.1 10.6 100 0.0 SE 9 11 5 6 1018.4 1016.0 0.4
15/04:34am 10.9 10.8 10.9 100 0.0 NNE 2 7 1 4 1018.3 1015.9 0.4
15/04:30am 11.0 11.3 11.0 100 0.0 CALM 0 0 0 0 1018.3 1015.9 0.4
15/04:15am 10.4 10.6 10.4 100 0.0 CALM 0 0 0 0 1018.2 1015.8 0.4
15/04:00am 11.3 11.7 11.3 100 0.0 CALM 0 0 0 0 1018.3 1015.9 0.4
15/03:30am 11.8 12.0 11.8 100 0.0 NNE 2 7 1 4 1018.3 1015.9 0.4
15/03:00am 12.1 12.8 12.1 100 0.0 CALM 0 0 0 0 1018.4 1016.0 0.4
15/02:30am 11.8 11.5 11.6 99 0.1 NNE 4 7 2 4 1018.5 1016.1 0.4
15/02:00am 12.4 12.3 12.2 99 0.1 NNE 4 6 2 3 1018.6 1016.2 0.4
15/01:30am 12.7 12.2 12.5 99 0.1 NNE 7 9 4 5 1018.9 1016.5 0.4
15/01:00am 13.9 14.9 13.1 95 0.5 CALM 0 0 0 0 1019.0 1016.6 0.4
15/12:30am 14.2 15.4 13.7 97 0.3 CALM 0 6 0 3 1019.3 1016.9 0.4
15/12:00am 13.5 13.1 13.0 97 0.3 NNE 7 7 4 4 1019.4 1017.0 0.4
 
Date/Time
EDT
Temp
°C
App
Temp
°C
Dew
Point
°C
Rel
Hum
%
Delta-T
°C
Wind Press
QNH
hPa
Press
MSL
hPa
Rain since
9am
mm
Dir  Spd
km/h
Gust
km/h
Spd
kts
Gust
kts
14/11:30pm 13.9 12.9 12.3 90 0.9 NNE 9 11 5 6 1019.3 1016.9 0.4
14/11:00pm 14.9 14.1 12.9 88 1.1 NE 9 9 5 5 1019.3 1016.9 0.4
14/10:30pm 15.1 14.3 13.0 87 1.2 NE 9 11 5 6 1019.4 1017.0 0.4
14/10:00pm 15.3 15.4 12.6 84 1.5 WNW 4 7 2 4 1019.5 1017.1 0.4
14/09:30pm 16.4 14.8 12.8 79 2.1 WNW 13 17 7 9 1019.2 1016.8 0.4
14/09:00pm 17.0 16.0 12.3 74 2.7 NW 9 11 5 6 1018.6 1016.2 0.4
14/08:30pm 17.6 16.2 12.3 71 3.0 NNW 11 13 6 7 1018.5 1016.1 0.4
14/08:00pm 18.0 17.1 12.5 70 3.2 NNW 9 11 5 6 1018.3 1015.9 0.4
14/07:30pm 18.8 17.0 12.1 65 3.8 NNW 13 15 7 8 1018.0 1015.6 0.4
14/07:00pm 19.2 16.9 11.7 62 4.3 NNW 15 20 8 11 1017.7 1015.3 0.4
14/06:30pm 20.2 17.5 11.7 58 4.9 NNW 17 24 9 13 1017.6 1015.2 0.4
14/06:00pm 20.3 17.3 12.0 59 4.8 NNW 19 26 10 14 1017.5 1015.0 0.4
14/05:30pm 20.8 17.7 11.7 56 5.2 N 19 26 10 14 1017.3 1014.9 0.4
14/05:00pm 20.0 16.3 11.5 58 4.9 N 22 28 12 15 1017.6 1015.2 0.4
14/04:30pm 19.7 15.5 11.2 58 4.8 N 24 30 13 16 1017.6 1015.2 0.4
14/04:00pm 19.6 15.0 10.9 57 4.9 N 26 33 14 18 1017.3 1014.9 0.4
14/03:30pm 19.8 15.0 10.2 54 5.4 N 26 35 14 19 1017.3 1014.9 0.4
14/03:00pm 20.4 16.7 11.6 57 5.0 NNW 22 30 12 16 1017.5 1015.0 0.4
14/02:30pm 19.8 15.4 11.6 59 4.7 NNW 26 32 14 17 1017.9 1015.5 0.4
14/02:00pm 20.3 17.0 11.0 55 5.3 NNW 19 26 10 14 1017.9 1015.5 0.4
14/01:30pm 21.2 18.1 12.1 56 5.3 NNW 20 26 11 14 1017.8 1015.4 0.4
14/01:00pm 20.1 18.4 12.6 62 4.4 NNW 13 20 7 11 1018.0 1015.6 0.4
14/12:30pm 19.4 18.3 11.9 62 4.3 N 9 15 5 8 1018.2 1015.8 0.4
14/12:00pm 18.5 18.1 12.9 70 3.3 ENE 7 9 4 5 1018.4 1016.0 0.4
14/11:30am 17.9 17.1 14.0 78 2.3 E 11 15 6 8 1018.6 1016.2 0.4
14/11:00am 17.5 17.8 14.4 82 1.8 NNE 6 7 3 4 1019.3 1016.9 0.4
14/10:30am 17.5 17.0 14.8 84 1.6 WNW 11 13 6 7 1019.5 1017.1 0.0
14/10:00am 17.0 16.2 12.9 77 2.4 W 9 13 5 7 1019.2 1016.8 0.0
14/09:30am 16.8 16.3 12.5 76 2.5 NNW 7 9 4 5 1018.5 1016.1 0.0
14/09:00am 16.9 16.0 11.2 69 3.2 ENE 7 9 4 5 1018.3 1015.9 0.0
14/08:30am 16.5 16.6 11.6 73 2.8 SSE 2 6 1 3 1018.4 1016.0 0.0
14/08:00am 16.2 17.1 12.9 81 1.9 CALM 0 0 0 0 1018.3 1015.9 0.0
14/07:30am 15.6 15.7 13.8 89 1.1 S 6 9 3 5 1017.8 1015.4 0.0
14/07:00am 15.0 14.2 13.9 93 0.6 WSW 11 13 6 7 1017.6 1015.2 0.0
14/06:30am 15.1 14.1 13.3 89 1.0 SW 11 13 6 7 1017.2 1014.8 0.0
14/06:00am 14.9 14.4 12.8 87 1.2 S 7 9 4 5 1016.9 1014.5 0.0
14/05:30am 14.6 14.7 11.6 82 1.7 ENE 2 7 1 4 1017.1 1014.7 0.0
14/05:00am 15.1 12.3 10.1 72 2.7 SE 15 20 8 11 1016.4 1014.0 0.0
14/04:30am 15.7 14.6 12.1 79 2.0 SW 9 13 5 7 1016.8 1014.4 0.0
14/04:00am 17.0 15.2 9.4 61 4.1 S 9 11 5 6 1016.5 1014.1 0.0
14/03:30am 16.2 14.9 10.1 67 3.3 SW 7 9 4 5 1016.6 1014.2 0.0
14/03:00am 16.4 16.4 9.8 65 3.6 CALM 0 0 0 0 1016.6 1014.2 0.0
14/02:30am 16.8 16.2 8.8 59 4.3 SE 2 7 1 4 1016.6 1014.2 0.0
14/02:00am 17.1 16.1 8.8 58 4.4 SSE 4 7 2 4 1017.0 1014.6 0.0
14/01:30am 18.2 16.6 8.7 54 5.1 S 7 9 4 5 1017.5 1015.0 0.0
14/01:00am 18.4 16.9 9.2 55 5.0 S 7 9 4 5 1017.8 1015.4 0.0
14/12:30am 17.7 17.6 9.3 58 4.6 CALM 0 0 0 0 1017.9 1015.5 0.0
14/12:00am 17.9 16.8 8.5 54 5.0 S 4 7 2 4 1017.9 1015.5 0.0
 
Date/Time
EDT
Temp
°C
App
Temp
°C
Dew
Point
°C
Rel
Hum
%
Delta-T
°C
Wind Press
QNH
hPa
Press
MSL
hPa
Rain since
9am
mm
Dir  Spd
km/h
Gust
km/h
Spd
kts
Gust
kts
13/11:30pm 18.3 15.4 8.3 52 5.3 WSW 13 15 7 8 1018.1 1015.7 0.0
13/11:00pm 19.7 16.7 7.8 46 6.3 WSW 13 17 7 9 1018.0 1015.6 0.0
13/10:30pm 20.2 18.5 7.6 44 6.7 SW 6 17 3 9 1018.0 1015.6 0.0
13/10:00pm 20.5 20.0 7.8 44 6.8 CALM 0 0 0 0 1017.8 1015.4 0.0
13/09:30pm 19.0 17.7 7.8 48 6.0 SW 4 9 2 5 1017.8 1015.4 0.0
13/09:00pm 20.9 19.5 7.2 41 7.3 NNE 4 6 2 3 1017.3 1014.9 0.0
13/08:30pm 22.0 20.0 7.0 38 8.0 WNW 7 7 4 4 1017.3 1014.9 0.0
13/08:00pm 22.5 21.0 6.7 36 8.4 WNW 4 7 2 4 1017.5 1015.0 0.0
13/07:30pm 23.4 21.5 6.7 34 8.9 WNW 6 9 3 5 1017.2 1014.8 0.0
13/07:00pm 24.0 21.3 5.8 31 9.6 WNW 9 13 5 7 1017.0 1014.6 0.0
13/06:30pm 25.0 21.7 4.7 27 10.6 W 11 15 6 8 1016.5 1014.1 0.0
13/06:00pm 25.6 23.2 5.2 27 10.7 WSW 7 11 4 6 1016.4 1014.0 0.0
13/05:30pm 26.8 22.4 4.6 24 11.7 W 17 26 9 14 1016.6 1014.2 0.0
13/05:00pm 26.2 22.5 6.3 28 10.7 NW 15 20 8 11 1016.9 1014.5 0.0
13/04:30pm 26.6 24.1 3.8 23 11.8 NNW 6 13 3 7 1016.6 1014.2 0.0
13/04:00pm 26.2 23.2 4.1 24 11.5 NE 9 15 5 8 1016.8 1014.4 0.0
13/03:30pm 27.1 23.7 4.2 23 12.0 NE 11 20 6 11 1017.1 1014.7 0.0
13/03:00pm 27.0 23.9 3.5 22 12.1 NW 9 15 5 8 1017.7 1015.3 0.0
13/02:30pm 27.1 23.1 6.5 27 11.2 NNW 17 28 9 15 1018.1 1015.7 0.0
13/02:00pm 26.6 24.2 7.1 29 10.7 WNW 9 20 5 11 1018.5 1016.1 0.0
13/01:30pm 25.8 22.1 6.4 29 10.5 NNW 15 20 8 11 1018.9 1016.5 0.0
13/01:00pm 25.1 21.3 5.8 29 10.2 NNW 15 20 8 11 1019.3 1016.9 0.0
13/12:30pm 25.0 21.7 6.2 30 10.0 NNW 13 20 7 11 1019.5 1017.1 0.0
13/12:00pm 24.5 20.6 5.3 29 10.0 N 15 24 8 13 1019.9 1017.6 0.0
13/11:30am 24.5 21.2 6.3 31 9.7 N 13 22 7 12 1020.1 1017.8 0.0
13/11:00am 23.1 18.7 4.6 30 9.5 NNW 17 24 9 13 1020.4 1018.0 0.0
13/10:30am 23.6 20.2 6.0 32 9.3 N 13 22 7 12 1020.5 1018.1 0.0
13/10:00am 21.9 19.0 4.5 32 8.8 NNE 9 17 5 9 1020.5 1018.1 0.0
13/09:30am 21.4 18.1 4.5 33 8.6 NNE 11 17 6 9 1020.7 1018.3 0.0
13/09:00am 20.2 18.3 7.6 44 6.7 NE 7 11 4 6 1021.0 1018.6 0.0
13/08:30am 18.8 17.6 7.9 49 5.8 NNW 4 9 2 5 1021.1 1018.7 0.0
13/08:00am 17.2 16.0 9.4 60 4.2 SE 6 9 3 5 1021.1 1018.7 0.0
13/07:30am 15.4 15.2 10.6 73 2.6 SSE 2 7 1 4 1020.9 1018.5 0.0
13/07:00am 13.0 12.4 11.6 91 0.8 SSW 6 7 3 4 1020.8 1018.4 0.0
13/06:30am 11.5 10.4 10.6 94 0.5 SSE 7 7 4 4 1020.5 1018.1 0.0
13/06:00am 11.8 10.2 11.5 98 0.2 ESE 11 13 6 7 1019.9 1017.6 0.0

Other Formats:

Comma delimited format used in spreadsheet applications
http://www.bom.gov.au/fwo/IDN60801/IDN60801.94729.axf

JavaScript Object Notation format (JSON) in row-major order
http://www.bom.gov.au/fwo/IDN60801/IDN60801.94729.json